Time;durP1;ratioP1;P1;durP2;ratioP2;P2;SDS_P1;SDS_P2;PMS_P1;PMS_P2;Temp;Humidity;BMP_temperature;BMP_pressure;BME280_temperature;BME280_humidity;BME280_pressure;Samples;Min_cycle;Max_cycle;Signal;HPM_P1;HPM_P2
2023/01/30 00:02:04;;;;;;;6.40;2.90;;;;;;;0.17;51.67;100513.98;105531;1259;71188;-50
2023/01/30 00:04:33;;;;;;;6.40;2.30;;;;;;;0.20;51.67;100511.67;105502;1259;73491;-50
2023/01/30 00:07:01;;;;;;;6.80;2.40;;;;;;;0.22;51.70;100509.68;105313;1260;59642;-50
2023/01/30 00:11:28;;;;;;;7.10;2.70;;;;;;;0.12;51.99;100510.23;103464;1291;601956;-69
2023/01/30 00:13:59;;;;;;;5.40;1.50;;;;;;;0.27;51.59;100504.17;108316;1265;58020;-70
2023/01/30 00:16:31;;;;;;;7.30;2.10;;;;;;;0.35;51.54;100499.07;106359;1265;60169;-70
2023/01/30 00:19:03;;;;;;;8.20;3.20;;;;;;;0.38;51.54;100494.98;106306;1265;71975;-69
2023/01/30 00:21:32;;;;;;;6.60;2.10;;;;;;;0.44;51.47;100498.91;104692;1266;71237;-70
2023/01/30 00:24:00;;;;;;;7.10;3.00;;;;;;;0.36;51.62;100503.50;104467;1269;200274;-69
2023/01/30 00:26:29;;;;;;;6.70;1.60;;;;;;;0.34;51.67;100497.69;104731;1263;60658;-70
2023/01/30 00:28:58;;;;;;;7.10;2.70;;;;;;;0.35;51.69;100495.58;104658;1264;61239;-70
2023/01/30 00:31:30;;;;;;;6.30;2.30;;;;;;;0.37;51.71;100494.33;104650;1267;72926;-73
2023/01/30 00:33:58;;;;;;;5.90;2.00;;;;;;;0.38;51.65;100491.02;104762;1264;71292;-70
2023/01/30 00:36:27;;;;;;;7.30;2.70;;;;;;;0.37;51.55;100486.03;104769;1266;73654;-71
2023/01/30 00:38:57;;;;;;;6.00;2.30;;;;;;;0.36;51.67;100486.23;104735;1265;60477;-71
2023/01/30 00:47:04;;;;;;;5.10;1.80;;;;;;;0.36;51.63;100485.22;104772;1267;60226;-70
2023/01/30 00:47:07;;;;;;;6.00;1.80;;;;;;;0.32;51.79;100478.45;104673;1266;62467;-70
2023/01/30 00:49:36;;;;;;;4.80;2.10;;;;;;;0.30;51.81;100478.52;104651;1268;72633;-70
2023/01/30 00:52:07;;;;;;;6.10;2.00;;;;;;;0.29;51.93;100474.95;104936;1266;60070;-70
2023/01/30 00:54:36;;;;;;;6.30;2.70;;;;;;;0.28;52.05;100472.20;104583;1264;61349;-70
2023/01/30 00:57:04;;;;;;;7.20;2.40;;;;;;;0.27;52.21;100469.81;104706;1265;74323;-70
2023/01/30 00:59:32;;;;;;;5.40;2.00;;;;;;;0.27;52.29;100464.29;104717;1266;71366;-69
2023/01/30 01:02:01;;;;;;;6.30;2.40;;;;;;;0.27;52.27;100461.04;105227;1266;73678;-69
2023/01/30 01:04:29;;;;;;;7.70;2.80;;;;;;;0.25;52.31;100457.29;104607;1263;60396;-69
2023/01/30 01:07:02;;;;;;;5.80;2.30;;;;;;;0.24;52.39;100455.45;104589;1264;61390;-70
2023/01/30 01:09:31;;;;;;;5.40;1.80;;;;;;;0.23;52.54;100453.90;105186;1260;74148;-70
2023/01/30 01:11:59;;;;;;;5.70;2.00;;;;;;;0.24;52.50;100445.78;105062;1256;71338;-71
2023/01/30 01:14:28;;;;;;;6.80;2.00;;;;;;;0.25;52.62;100441.42;104999;1261;73672;-70
2023/01/30 01:16:59;;;;;;;7.30;2.80;;;;;;;0.25;52.60;100438.14;105163;1260;59634;-68
2023/01/30 01:19:28;;;;;;;7.00;2.00;;;;;;;0.22;52.55;100432.91;105071;1257;61338;-70
2023/01/30 01:21:59;;;;;;;6.50;2.40;;;;;;;0.20;52.59;100434.38;105081;1261;73986;-69
2023/01/30 01:24:28;;;;;;;4.40;1.50;;;;;;;0.16;52.59;100434.16;105130;1259;70273;-70
2023/01/30 01:26:57;;;;;;;5.30;2.10;;;;;;;0.13;52.70;100430.13;105236;1261;73621;-70
2023/01/30 01:29:25;;;;;;;7.40;2.60;;;;;;;0.11;52.90;100426.56;105138;1257;60300;-68
2023/01/30 01:31:54;;;;;;;7.80;2.10;;;;;;;0.11;52.90;100429.00;105100;1257;61383;-70
2023/01/30 01:34:23;;;;;;;4.40;2.00;;;;;;;0.10;52.96;100424.20;105211;1256;73955;-69
2023/01/30 01:36:51;;;;;;;6.10;2.40;;;;;;;0.11;53.03;100420.52;105049;1256;71261;-72
2023/01/30 01:39:24;;;;;;;5.40;2.00;;;;;;;0.13;53.11;100418.73;105192;1260;73677;-70
2023/01/30 01:42:12;;;;;;;4.80;1.70;;;;;;;0.13;53.06;100414.59;105261;1257;59806;-70
2023/01/30 01:45:02;;;;;;;4.90;1.80;;;;;;;0.13;53.02;100412.56;105140;1257;61689;-69
2023/01/30 01:47:32;;;;;;;6.20;2.00;;;;;;;0.13;53.06;100413.92;105083;1256;64070;-71
2023/01/30 01:50:01;;;;;;;6.10;1.60;;;;;;;0.11;53.14;100412.93;105222;1257;71482;-70
2023/01/30 01:52:30;;;;;;;6.90;2.50;;;;;;;0.11;53.11;100409.86;105107;1258;73301;-71
2023/01/30 01:55:02;;;;;;;6.30;1.70;;;;;;;0.10;53.31;100410.42;105140;1257;61408;-70
2023/01/30 01:57:52;;;;;;;3.30;1.10;;;;;;;0.09;53.36;100412.67;105129;1258;60990;-70
2023/01/30 02:00:21;;;;;;;5.20;2.30;;;;;;;0.10;53.34;100413.33;105082;1260;65215;-71
2023/01/30 02:02:57;;;;;;;5.20;1.30;;;;;;;0.10;53.29;100411.09;105234;1257;70925;-70
2023/01/30 02:05:29;;;;;;;4.80;1.70;;;;;;;0.09;53.40;100412.15;105089;1260;72628;-71
2023/01/30 02:08:03;;;;;;;4.90;1.20;;;;;;;0.08;53.40;100404.58;105222;1256;60328;-70
2023/01/30 02:27:49;;;;;;;5.50;2.10;;;;;;;0.03;54.08;100401.00;102225;1290;602702;-68
2023/01/30 02:30:46;;;;;;;5.70;1.80;;;;;;;0.10;53.91;100398.83;108330;1264;57166;-69
2023/01/30 02:33:21;;;;;;;7.20;2.10;;;;;;;0.12;53.86;100392.89;108445;1266;57525;-69
2023/01/30 02:36:29;;;;;;;5.10;1.90;;;;;;;0.14;53.86;100384.88;108356;1266;72982;-69
2023/01/30 02:39:22;;;;;;;4.80;1.60;;;;;;;0.19;53.87;100377.83;108375;1267;61660;-69
2023/01/30 02:42:31;;;;;;;6.70;3.20;;;;;;;0.21;53.85;100376.18;107267;1266;169403;-69
2023/01/30 02:45:25;;;;;;;5.30;2.00;;;;;;;0.22;53.88;100373.91;104340;1272;59572;-69
2023/01/30 02:48:01;;;;;;;5.80;1.90;;;;;;;0.22;53.97;100372.19;104470;1272;59231;-70
2023/01/30 02:50:33;;;;;;;;;;;;;;;0.22;54.00;100367.35;105320;1266;64628;-69
2023/01/30 02:53:03;;;;;;;6.40;2.00;;;;;;;0.22;53.98;100356.48;104676;1269;71266;-71
2023/01/30 02:55:32;;;;;;;5.50;1.80;;;;;;;0.22;53.87;100356.33;104659;1270;73613;-71
2023/01/30 02:58:02;;;;;;;6.60;2.70;;;;;;;0.21;53.78;100350.83;104732;1264;59634;-71
2023/01/30 03:00:43;;;;;;;6.60;2.20;;;;;;;0.20;53.77;100345.69;105258;1260;61068;-70
2023/01/30 03:03:44;;;;;;;4.10;1.10;;;;;;;0.20;53.72;100345.53;105166;1260;65987;-72
2023/01/30 03:06:16;;;;;;;5.30;1.40;;;;;;;0.18;53.72;100345.06;105711;1260;62339;-69
2023/01/30 03:09:00;;;;;;;5.20;2.50;;;;;;;0.19;53.86;100342.45;105071;1260;73395;-70
2023/01/30 03:11:37;;;;;;;4.90;1.50;;;;;;;0.19;53.75;100342.10;105500;1258;59628;-70
2023/01/30 03:14:11;;;;;;;4.90;1.80;;;;;;;0.20;53.74;100338.27;105440;1260;60951;-69
2023/01/30 03:16:40;;;;;;;5.60;1.80;;;;;;;0.20;53.74;100334.66;105200;1256;73363;-70
2023/01/30 03:19:10;;;;;;;4.10;1.30;;;;;;;0.21;53.68;100333.06;105083;1261;71254;-71
2023/01/30 03:21:41;;;;;;;4.50;1.40;;;;;;;0.22;53.65;100332.87;105199;1260;74176;-71
2023/01/30 03:24:10;;;;;;;5.70;1.50;;;;;;;0.18;53.53;100328.15;105166;1260;60527;-71
2023/01/30 03:26:44;;;;;;;4.70;1.60;;;;;;;0.18;53.53;100324.72;105543;1267;61378;-69
2023/01/30 03:29:15;;;;;;;5.70;1.90;;;;;;;0.18;53.55;100322.83;105178;1260;73970;-71
2023/01/30 03:31:44;;;;;;;5.70;1.60;;;;;;;0.18;53.64;100321.27;105281;1257;71326;-70
2023/01/30 03:34:12;;;;;;;4.50;1.50;;;;;;;0.17;53.62;100323.72;105245;1264;73382;-71
2023/01/30 03:36:41;;;;;;;5.10;1.80;;;;;;;0.17;53.57;100322.70;105226;1268;59666;-69
2023/01/30 03:39:10;;;;;;;5.20;1.40;;;;;;;0.17;53.59;100324.08;105173;1258;61089;-69
2023/01/30 03:41:39;;;;;;;4.20;1.00;;;;;;;0.17;53.61;100320.09;105144;1261;73713;-70
2023/01/30 03:44:08;;;;;;;4.90;1.30;;;;;;;0.17;53.61;100318.52;105186;1260;71142;-71
2023/01/30 03:46:36;;;;;;;2.60;1.10;;;;;;;0.18;53.45;100317.29;105169;1263;73818;-70
2023/01/30 03:49:04;;;;;;;5.60;1.00;;;;;;;0.19;53.49;100315.19;105142;1258;60633;-69
2023/01/30 03:51:32;;;;;;;4.00;1.10;;;;;;;0.20;53.47;100311.00;105391;1255;61014;-69
2023/01/30 03:54:02;;;;;;;5.00;1.30;;;;;;;0.20;53.43;100308.08;105470;1260;73816;-70
2023/01/30 03:56:31;;;;;;;2.80;0.80;;;;;;;0.20;53.45;100308.59;105595;1263;71279;-69
2023/01/30 03:58:59;;;;;;;4.90;1.70;;;;;;;0.20;53.39;100309.48;105527;1260;73454;-71
2023/01/30 04:01:35;;;;;;;4.30;1.40;;;;;;;0.19;53.48;100306.58;105269;1268;59690;-70
2023/01/30 04:04:04;;;;;;;5.70;1.30;;;;;;;0.18;53.40;100300.38;105057;1257;60533;-70
2023/01/30 04:06:32;;;;;;;4.40;1.60;;;;;;;0.18;53.49;100293.16;105584;1259;74036;-70
2023/01/30 04:09:04;;;;;;;4.10;1.20;;;;;;;0.19;53.54;100287.09;105113;1261;70283;-70
2023/01/30 04:11:41;;;;;;;6.00;1.40;;;;;;;0.20;53.54;100284.63;105275;1260;73672;-70
2023/01/30 04:14:09;;;;;;;3.90;1.10;;;;;;;0.21;53.58;100281.48;105003;1258;60400;-69
2023/01/30 04:16:46;;;;;;;4.40;1.50;;;;;;;0.20;53.63;100280.11;105928;1257;61182;-70
2023/01/30 04:19:46;;;;;;;4.70;2.10;;;;;;;0.21;53.63;100278.89;105452;1263;64951;-69
2023/01/30 04:22:14;;;;;;;3.50;1.30;;;;;;;0.20;53.53;100283.41;105114;1258;71080;-70
2023/01/30 04:24:43;;;;;;;9.20;2.00;;;;;;;0.19;53.62;100281.56;105152;1260;73136;-70
2023/01/30 04:27:12;;;;;;;6.90;1.20;;;;;;;0.18;53.81;100280.39;105161;1260;60632;-70
2023/01/30 04:29:51;;;;;;;5.40;1.60;;;;;;;0.19;53.83;100278.95;104945;1258;60508;-70
2023/01/30 04:32:25;;;;;;;5.60;2.30;;;;;;;0.19;53.73;100279.66;105032;1264;75656;-70
2023/01/30 04:34:54;;;;;;;5.50;1.90;;;;;;;0.19;53.89;100273.29;105546;1261;71717;-69
2023/01/30 04:37:23;;;;;;;5.90;1.70;;;;;;;0.17;53.89;100275.92;105888;1263;72516;-70
2023/01/30 04:39:52;;;;;;;5.30;1.40;;;;;;;0.15;53.92;100276.88;105160;1257;60593;-70
2023/01/30 04:42:20;;;;;;;4.90;1.90;;;;;;;0.15;54.17;100280.83;104968;1257;61342;-71
2023/01/30 04:45:07;;;;;;;4.50;1.40;;;;;;;0.17;54.18;100282.33;108939;1257;65384;-68
2023/01/30 04:47:37;;;;;;;4.80;2.00;;;;;;;0.18;54.06;100281.23;108884;1257;71211;-69
2023/01/30 04:50:05;;;;;;;4.30;1.60;;;;;;;0.20;54.20;100282.05;108993;1257;73636;-69
2023/01/30 04:52:34;;;;;;;5.80;1.80;;;;;;;0.23;54.16;100278.13;107150;1257;60978;-70
2023/01/30 04:55:03;;;;;;;8.10;4.00;;;;;;;0.24;54.16;100272.56;107644;1257;60038;-70
2023/01/30 04:57:33;;;;;;;8.60;1.80;;;;;;;0.27;54.16;100271.58;105278;1263;74033;-70
2023/01/30 05:00:01;;;;;;;5.70;2.30;;;;;;;0.28;54.26;100269.30;105162;1261;71249;-70
2023/01/30 05:02:34;;;;;;;6.10;3.10;;;;;;;0.29;54.27;100265.63;105022;1263;73522;-70
2023/01/30 05:05:05;;;;;;;5.90;2.60;;;;;;;0.28;54.28;100266.35;105126;1257;60278;-70
2023/01/30 05:07:33;;;;;;;5.20;2.20;;;;;;;0.27;54.46;100262.63;105130;1257;61170;-69
2023/01/30 05:10:03;;;;;;;4.70;1.80;;;;;;;0.26;54.54;100266.98;105149;1260;73972;-70
2023/01/30 05:12:33;;;;;;;5.70;1.90;;;;;;;0.25;54.64;100264.25;105138;1257;70708;-70
2023/01/30 05:15:02;;;;;;;5.90;2.20;;;;;;;0.24;54.77;100264.30;105206;1262;73471;-70
2023/01/30 05:17:32;;;;;;;7.50;2.10;;;;;;;0.23;54.80;100261.58;105128;1257;60614;-70
2023/01/30 05:20:01;;;;;;;7.70;2.50;;;;;;;0.21;54.88;100255.61;105153;1257;61016;-72
2023/01/30 05:22:30;;;;;;;6.80;2.80;;;;;;;0.19;55.14;100251.02;105173;1258;72739;-70
2023/01/30 07:44:56;;;;;;;7.20;3.10;;;;;;;0.31;58.91;100120.24;102010;1291;600295;-66
2023/01/30 07:49:40;;;;;;;6.00;2.70;;;;;;;0.37;58.84;100115.04;104182;1289;601901;-66
2023/01/30 07:52:09;;;;;;;6.50;2.80;;;;;;;0.57;58.41;100114.86;108452;1265;61893;-69
2023/01/30 07:54:37;;;;;;;6.90;2.20;;;;;;;0.72;58.30;100112.47;108444;1266;61279;-68
2023/01/30 07:57:58;;;;;;;5.50;2.60;;;;;;;0.77;58.27;100105.71;102429;1292;606800;-71
2023/01/30 08:00:29;;;;;;;8.40;3.20;;;;;;;0.85;57.84;100106.05;108445;1266;57419;-69
2023/01/30 08:02:58;;;;;;;7.20;3.10;;;;;;;0.82;57.85;100092.52;106424;1266;61341;-70
2023/01/30 08:05:26;;;;;;;7.90;3.00;;;;;;;0.82;57.88;100090.29;104718;1268;72859;-70
2023/01/30 08:07:55;;;;;;;7.70;2.60;;;;;;;0.82;57.97;100091.52;104821;1269;71908;-71
2023/01/30 08:10:24;;;;;;;6.70;2.80;;;;;;;0.80;58.02;100087.80;104681;1267;185922;-67
2023/01/30 08:12:54;;;;;;;7.40;3.10;;;;;;;0.78;58.05;100081.65;104967;1267;59458;-70
2023/01/30 08:15:22;;;;;;;7.30;2.70;;;;;;;0.77;58.10;100072.74;104823;1267;61072;-70
2023/01/30 08:17:56;;;;;;;7.40;3.20;;;;;;;0.73;58.05;100073.44;104745;1264;72178;-69
2023/01/30 08:20:27;;;;;;;7.00;2.60;;;;;;;0.68;58.23;100074.83;104696;1263;71658;-69
2023/01/30 08:22:55;;;;;;;6.30;2.50;;;;;;;0.65;58.42;100069.45;104714;1266;72556;-70
2023/01/30 08:25:26;;;;;;;9.50;3.10;;;;;;;0.65;58.57;100064.11;104563;1264;60389;-73
2023/01/30 08:27:57;;;;;;;7.50;2.70;;;;;;;0.64;58.49;100058.61;104776;1264;61223;-70
2023/01/30 08:30:26;;;;;;;6.60;2.90;;;;;;;0.64;58.55;100058.13;104793;1266;73861;-70
2023/01/30 08:32:54;;;;;;;7.30;2.40;;;;;;;0.63;58.59;100050.56;104805;1266;69997;-71
2023/01/30 08:35:23;;;;;;;6.90;2.40;;;;;;;0.64;58.52;100048.27;104931;1263;72979;-74
2023/01/30 08:37:51;;;;;;;7.60;2.70;;;;;;;0.63;58.58;100049.02;104825;1264;60451;-68
2023/01/30 08:40:19;;;;;;;8.40;2.80;;;;;;;0.62;58.70;100041.96;104825;1263;61109;-70
2023/01/30 08:42:48;;;;;;;6.00;2.20;;;;;;;0.66;58.80;100039.02;104972;1263;73627;-70
2023/01/30 08:45:17;;;;;;;7.10;2.30;;;;;;;0.71;58.62;100036.05;104709;1267;70049;-69
2023/01/30 08:47:45;;;;;;;7.50;2.90;;;;;;;0.80;58.51;100027.89;104658;1264;73825;-70
2023/01/30 08:50:14;;;;;;;6.90;2.90;;;;;;;0.96;58.14;100028.73;104745;1263;62107;-70
2023/01/30 08:52:43;;;;;;;7.00;2.80;;;;;;;1.05;57.98;100022.06;104974;1263;60718;-70
2023/01/30 08:55:12;;;;;;;6.70;1.90;;;;;;;1.12;57.60;100015.88;104796;1266;73948;-69
2023/01/30 08:57:44;;;;;;;6.10;2.30;;;;;;;1.14;57.34;100014.75;104760;1264;71288;-70
2023/01/30 09:00:14;;;;;;;5.70;2.30;;;;;;;1.14;57.47;100007.85;105141;1264;73518;-70
2023/01/30 09:02:43;;;;;;;5.20;2.20;;;;;;;1.15;57.43;100001.39;104804;1263;62309;-69
2023/01/30 09:05:16;;;;;;;5.40;2.10;;;;;;;1.16;57.31;99997.23;104667;1265;60044;-71
2023/01/30 09:07:45;;;;;;;6.30;2.80;;;;;;;1.15;57.27;99991.54;104781;1264;73486;-72
2023/01/30 09:10:14;;;;;;;6.90;2.90;;;;;;;1.12;57.35;99989.80;104893;1263;71305;-71
2023/01/30 09:13:04;;;;;;;5.30;1.70;;;;;;;1.16;57.38;99984.09;104727;1261;65349;-71
2023/01/30 09:15:34;;;;;;;4.70;1.50;;;;;;;1.18;57.46;99982.61;104718;1263;60330;-70
2023/01/30 09:18:03;;;;;;;5.50;1.80;;;;;;;1.21;57.42;99982.80;104736;1266;60859;-71
2023/01/30 09:20:32;;;;;;;9.00;2.90;;;;;;;1.22;57.18;99978.42;104752;1264;75229;-71
2023/01/30 09:23:03;;;;;;;7.20;3.10;;;;;;;1.23;57.18;99979.59;104789;1264;71223;-71
2023/01/30 09:25:33;;;;;;;8.30;3.30;;;;;;;1.20;57.11;99970.89;104713;1263;73717;-71
2023/01/30 09:28:02;;;;;;;5.30;1.80;;;;;;;1.17;57.15;99965.91;104848;1264;60278;-71
2023/01/30 09:30:30;;;;;;;7.60;2.50;;;;;;;1.14;57.27;99959.49;105170;1260;61354;-72
2023/01/30 09:32:58;;;;;;;7.70;2.40;;;;;;;1.09;57.26;99963.66;105223;1259;73653;-72
2023/01/30 09:35:27;;;;;;;7.40;3.00;;;;;;;1.03;57.38;99960.16;105206;1259;70313;-71
2023/01/30 09:37:55;;;;;;;5.90;2.40;;;;;;;0.98;57.57;99963.84;105239;1257;73577;-71
2023/01/30 09:40:27;;;;;;;8.20;2.20;;;;;;;0.93;57.70;99953.89;105404;1256;60337;-69
2023/01/30 09:43:18;;;;;;;7.90;2.80;;;;;;;0.87;57.89;99952.59;105175;1256;60984;-71
2023/01/30 09:45:58;;;;;;;6.30;2.70;;;;;;;0.82;57.97;99948.00;105314;1257;65238;-70
2023/01/30 09:48:36;;;;;;;5.30;2.20;;;;;;;0.77;58.05;99947.02;105301;1257;62628;-70
2023/01/30 09:51:24;;;;;;;16.10;2.60;;;;;;;0.73;58.31;99939.96;105128;1257;73693;-72
2023/01/30 09:53:55;;;;;;;6.50;2.20;;;;;;;0.72;58.36;99934.48;105215;1257;59766;-71
2023/01/30 12:07:18;;;;;;;7.50;2.80;;;;;;;1.94;56.65;99679.41;103212;1286;605170;-54
2023/01/30 12:09:53;;;;;;;7.10;2.70;;;;;;;2.28;55.68;99666.66;104574;1271;91436;-54
2023/01/30 12:12:41;;;;;;;6.10;2.60;;;;;;;2.21;55.69;99668.25;104813;1271;60394;-54
2023/01/30 12:15:24;;;;;;;7.30;2.40;;;;;;;2.16;55.86;99665.27;104673;1267;64528;-54
2023/01/30 12:17:55;;;;;;;7.90;3.30;;;;;;;2.10;55.91;99663.36;104873;1266;62384;-54
2023/01/30 12:20:50;;;;;;;7.70;2.90;;;;;;;2.01;56.11;99661.91;104854;1269;73811;-55
2023/01/30 12:23:30;;;;;;;8.40;2.10;;;;;;;1.93;56.29;99655.30;104890;1270;60384;-55
2023/01/30 12:26:25;;;;;;;5.30;2.30;;;;;;;1.85;56.56;99648.82;104846;1264;59362;-54
2023/01/30 12:28:59;;;;;;;5.00;2.40;;;;;;;1.79;56.86;99643.96;104860;1268;65011;-53
2023/01/30 12:31:54;;;;;;;7.20;2.80;;;;;;;1.74;57.01;99640.42;104843;1269;71242;-54
2023/01/30 12:34:22;;;;;;;9.50;2.10;;;;;;;1.70;57.21;99635.62;104772;1267;64856;-54
2023/01/30 12:36:57;;;;;;;6.20;2.00;;;;;;;1.66;57.21;99633.27;104864;1267;59912;-56
2023/01/30 12:39:32;;;;;;;7.20;3.00;;;;;;;1.63;57.44;99632.53;104537;1268;60371;-54
2023/01/30 12:42:33;;;;;;;8.80;2.50;;;;;;;1.60;57.50;99628.08;104839;1268;65447;-55
2023/01/30 12:45:21;;;;;;;7.00;2.80;;;;;;;1.56;57.71;99627.60;104742;1269;62649;-55
2023/01/30 12:48:09;;;;;;;6.60;2.50;;;;;;;1.54;57.78;99621.98;104843;1269;65004;-53
2023/01/30 12:50:59;;;;;;;5.60;1.60;;;;;;;1.53;57.89;99625.69;104928;1268;59689;-54
2023/01/30 12:53:39;;;;;;;6.40;2.60;;;;;;;1.51;57.96;99625.98;104862;1267;59725;-53
2023/01/30 12:56:27;;;;;;;5.60;2.50;;;;;;;1.50;58.15;99625.86;104835;1267;65207;-53
2023/01/30 12:59:19;;;;;;;7.50;2.50;;;;;;;1.50;58.15;99619.98;104780;1269;62557;-53
2023/01/30 13:02:07;;;;;;;6.50;2.10;;;;;;;1.49;58.12;99616.89;104863;1269;65216;-53
2023/01/30 13:04:57;;;;;;;6.10;2.20;;;;;;;1.48;58.12;99614.35;104583;1267;59654;-52
2023/01/30 13:08:13;;;;;;;6.70;1.80;;;;;;;1.54;58.22;99608.52;104757;1265;59686;-53
2023/01/30 13:11:00;;;;;;;8.90;2.70;;;;;;;1.69;57.95;99609.11;104528;1270;65101;-54
2023/01/30 13:13:34;;;;;;;6.70;2.70;;;;;;;1.75;57.76;99608.91;104858;1268;62401;-53
2023/01/30 13:16:18;;;;;;;8.90;3.10;;;;;;;1.75;57.73;99609.59;104947;1264;64999;-54
2023/01/30 13:18:55;;;;;;;6.60;3.20;;;;;;;1.72;57.77;99608.40;104677;1272;59624;-54
2023/01/30 13:21:43;;;;;;;6.30;2.60;;;;;;;1.67;57.87;99605.36;104756;1272;59658;-54
2023/01/30 13:24:17;;;;;;;4.80;1.70;;;;;;;1.64;58.10;99602.40;104813;1267;65375;-55
2023/01/30 13:26:46;;;;;;;7.80;3.70;;;;;;;1.63;58.05;99602.30;104847;1268;62929;-55
2023/01/30 13:29:34;;;;;;;7.20;2.70;;;;;;;1.62;58.14;99601.67;104853;1268;65021;-55
2023/01/30 13:32:05;;;;;;;7.60;2.70;;;;;;;1.63;58.19;99600.25;104754;1264;59666;-57
2023/01/30 13:34:43;;;;;;;8.00;2.50;;;;;;;1.62;58.11;99593.88;104648;1270;59644;-55
2023/01/30 13:37:17;;;;;;;6.90;2.30;;;;;;;1.62;58.17;99592.34;104821;1272;65399;-55
2023/01/30 13:39:59;;;;;;;8.80;2.30;;;;;;;1.61;58.29;99594.77;104847;1268;62316;-56
2023/01/30 13:42:31;;;;;;;6.70;2.70;;;;;;;1.60;58.32;99591.02;104744;1270;64103;-55
2023/01/30 13:44:59;;;;;;;7.00;2.60;;;;;;;1.60;58.39;99589.88;104927;1267;59905;-55
2023/01/30 13:47:47;;;;;;;7.40;2.30;;;;;;;1.58;58.33;99589.95;104662;1267;61153;-54
2023/01/30 13:50:16;;;;;;;5.70;2.40;;;;;;;1.55;58.47;99582.88;104751;1270;65167;-54
2023/01/30 13:52:54;;;;;;;8.80;3.00;;;;;;;1.54;58.65;99581.21;104753;1267;71228;-56
2023/01/30 13:55:49;;;;;;;6.40;2.80;;;;;;;1.55;58.60;99577.18;104798;1269;65400;-54
2023/01/30 13:58:56;;;;;;;5.60;2.30;;;;;;;1.53;58.65;99568.64;104668;1269;59702;-54
2023/01/30 14:01:27;;;;;;;7.30;3.20;;;;;;;1.53;58.65;99568.30;104161;1272;59887;-55
2023/01/30 14:03:55;;;;;;;6.50;2.20;;;;;;;1.60;58.67;99562.69;104436;1279;65834;-54
2023/01/30 14:06:32;;;;;;;7.40;2.20;;;;;;;1.71;58.47;99557.95;104424;1267;62516;-55
2023/01/30 14:09:18;;;;;;;7.20;3.40;;;;;;;1.78;58.32;99551.50;104806;1268;64019;-54
2023/01/30 14:11:48;;;;;;;8.90;3.10;;;;;;;1.81;58.16;99552.73;104758;1271;59676;-54
2023/01/30 14:14:17;;;;;;;7.10;3.10;;;;;;;1.81;58.25;99548.72;105046;1263;59657;-53
2023/01/30 14:16:57;;;;;;;7.50;3.00;;;;;;;1.80;58.13;99554.16;104989;1265;65397;-54
2023/01/30 14:19:32;;;;;;;6.60;2.60;;;;;;;1.77;58.20;99547.25;104969;1265;61652;-55
2023/01/30 14:22:25;;;;;;;6.20;2.30;;;;;;;1.76;58.30;99544.38;104978;1263;64914;-53
2023/01/30 14:25:22;;;;;;;7.80;2.40;;;;;;;1.74;58.15;99543.79;104915;1263;59648;-54
2023/01/30 14:27:54;;;;;;;5.40;2.60;;;;;;;1.71;58.30;99538.61;104988;1263;59666;-55
2023/01/30 14:30:34;;;;;;;7.90;2.30;;;;;;;1.67;58.39;99532.79;105474;1254;64384;-55
2023/01/30 14:33:23;;;;;;;7.10;2.70;;;;;;;1.64;58.54;99533.27;105504;1257;61468;-55
2023/01/30 14:35:57;;;;;;;6.00;2.20;;;;;;;1.61;58.66;99530.48;105497;1254;64855;-53
2023/01/30 14:38:36;;;;;;;7.20;2.50;;;;;;;1.58;58.72;99535.85;105504;1254;59510;-54
2023/01/30 14:41:05;;;;;;;9.60;3.80;;;;;;;1.56;58.80;99534.44;105395;1255;59661;-54
2023/01/30 14:43:40;;;;;;;5.40;2.30;;;;;;;1.55;58.83;99535.17;105445;1257;65107;-54
2023/01/30 14:46:17;;;;;;;8.50;2.60;;;;;;;1.52;58.92;99536.88;105379;1254;62749;-54
2023/01/30 14:48:49;;;;;;;5.30;1.90;;;;;;;1.50;58.96;99533.54;105540;1254;65670;-55
2023/01/30 14:51:17;;;;;;;7.10;2.10;;;;;;;1.50;59.05;99532.85;105497;1254;59606;-54
2023/01/30 14:54:15;;;;;;;4.90;1.90;;;;;;;1.48;59.02;99528.44;105479;1258;60042;-55
2023/01/30 14:56:55;;;;;;;6.20;2.60;;;;;;;1.48;59.05;99525.88;105649;1254;65276;-53
2023/01/30 14:59:41;;;;;;;8.70;2.80;;;;;;;1.55;58.97;99519.95;105445;1254;62832;-52
2023/01/30 15:02:13;;;;;;;7.80;3.10;;;;;;;1.67;58.91;99512.70;105312;1257;65124;-53
2023/01/30 15:04:42;;;;;;;7.40;2.40;;;;;;;1.78;58.76;99510.73;105523;1254;59596;-55
2023/01/30 15:07:19;;;;;;;7.30;3.50;;;;;;;1.85;58.66;99514.12;105377;1259;59564;-54
2023/01/30 15:09:54;;;;;;;6.90;2.30;;;;;;;1.85;58.59;99507.84;105484;1255;65399;-53
2023/01/30 15:12:32;;;;;;;6.30;2.20;;;;;;;1.86;58.39;99505.73;105470;1260;62664;-53
2023/01/30 15:15:42;;;;;;;6.20;2.00;;;;;;;1.85;58.23;99505.45;105334;1257;65223;-53
2023/01/30 15:18:14;;;;;;;10.50;3.60;;;;;;;1.80;58.17;99503.63;105120;1257;59684;-54
2023/01/30 15:21:02;;;;;;;7.10;2.10;;;;;;;1.76;58.19;99499.90;105563;1259;59674;-53
2023/01/30 15:23:52;;;;;;;6.80;2.90;;;;;;;1.73;58.37;99497.14;105427;1257;64399;-54
2023/01/30 15:26:43;;;;;;;7.40;3.00;;;;;;;1.70;58.37;99500.09;105596;1259;62362;-52
2023/01/30 15:29:30;;;;;;;7.00;2.50;;;;;;;1.66;58.48;99500.33;105372;1256;64740;-53
2023/01/30 15:32:00;;;;;;;6.70;2.20;;;;;;;1.61;58.48;99497.80;105372;1256;59657;-53
2023/01/30 15:34:30;;;;;;;6.10;2.70;;;;;;;1.58;58.56;99497.47;105457;1260;59915;-54
2023/01/30 15:36:58;;;;;;;6.00;2.10;;;;;;;1.56;58.71;99496.38;105367;1255;65591;-54
2023/01/30 15:52:22;;;;;;;9.20;2.50;;;;;;;1.86;58.39;99495.98;103384;1288;604073;-49
2023/01/30 15:54:52;;;;;;;8.60;3.20;;;;;;;2.30;57.01;99493.64;104656;1270;79851;-49
2023/01/30 15:57:24;;;;;;;9.90;6.20;;;;;;;2.25;56.85;99495.31;104668;1270;59311;-49
2023/01/30 15:59:53;;;;;;;6.40;2.00;;;;;;;2.18;56.95;99498.52;104888;1271;64761;-49
2023/01/30 16:02:24;;;;;;;6.00;2.30;;;;;;;2.10;57.06;99494.52;105018;1269;62606;-51
2023/01/30 16:05:22;;;;;;;6.00;2.50;;;;;;;2.02;57.17;99495.13;104900;1270;64875;-50
2023/01/30 16:07:57;;;;;;;8.20;2.60;;;;;;;1.93;57.38;99497.92;104756;1266;59202;-49
2023/01/30 16:10:28;;;;;;;6.90;2.20;;;;;;;1.86;57.48;99493.64;104807;1264;59333;-49
2023/01/30 16:12:56;;;;;;;7.30;2.80;;;;;;;1.80;57.65;99487.73;104917;1269;64566;-49
2023/01/30 16:15:34;;;;;;;8.10;2.50;;;;;;;1.74;57.77;99487.39;104830;1264;71421;-49
2023/01/30 16:18:35;;;;;;;5.60;1.70;;;;;;;1.69;57.89;99490.78;104754;1264;65057;-48
2023/01/30 16:21:08;;;;;;;6.50;2.20;;;;;;;1.65;58.14;99492.07;104714;1270;60935;-48
2023/01/30 16:23:41;;;;;;;7.70;2.80;;;;;;;1.62;58.16;99495.86;104885;1268;59741;-49
2023/01/30 16:26:20;;;;;;;7.50;1.90;;;;;;;1.59;58.27;99496.92;104950;1268;65453;-50
2023/01/30 16:28:49;;;;;;;5.50;2.20;;;;;;;1.55;58.36;99492.29;104613;1273;61736;-50
2023/01/30 16:31:17;;;;;;;5.70;2.60;;;;;;;1.54;58.46;99486.52;104895;1264;73749;-47
2023/01/30 16:33:50;;;;;;;7.20;2.60;;;;;;;1.52;58.58;99483.48;104820;1264;60331;-48
2023/01/30 16:36:18;;;;;;;5.00;1.40;;;;;;;1.57;58.57;99478.00;104792;1269;59585;-48
2023/01/30 16:38:48;;;;;;;7.70;2.70;;;;;;;1.69;58.29;99474.05;104751;1270;74393;-49
2023/01/30 16:41:38;;;;;;;6.50;2.40;;;;;;;1.74;58.22;99475.33;104966;1268;70265;-49
2023/01/30 16:44:09;;;;;;;9.10;3.00;;;;;;;1.73;58.19;99469.64;104941;1269;64058;-49
2023/01/30 16:46:40;;;;;;;6.00;1.80;;;;;;;1.71;58.19;99469.27;104777;1268;59730;-49
2023/01/30 16:49:19;;;;;;;7.30;2.00;;;;;;;1.67;58.26;99465.83;104763;1267;59752;-49
2023/01/30 16:51:48;;;;;;;7.10;1.90;;;;;;;1.64;58.29;99464.96;104841;1269;74031;-48
2023/01/30 16:54:23;;;;;;;6.30;2.30;;;;;;;1.59;58.32;99460.24;104757;1267;71334;-49
2023/01/30 16:56:53;;;;;;;7.20;2.20;;;;;;;1.54;58.41;99459.33;104798;1267;64907;-49
2023/01/30 16:59:29;;;;;;;6.20;1.60;;;;;;;1.49;58.47;99460.95;104742;1267;59674;-50
2023/01/30 17:01:57;;;;;;;8.70;2.70;;;;;;;1.45;58.57;99460.38;104934;1266;59756;-49
2023/01/30 17:04:31;;;;;;;7.70;2.50;;;;;;;1.41;58.74;99464.05;104670;1268;74671;-50
2023/01/30 17:07:02;;;;;;;9.40;3.30;;;;;;;1.38;58.83;99464.22;104794;1267;63214;-50
2023/01/30 17:09:43;;;;;;;4.40;1.80;;;;;;;1.36;58.98;99462.09;104874;1269;64884;-51
2023/01/30 17:12:24;;;;;;;7.80;2.50;;;;;;;1.34;58.97;99463.10;104845;1267;59786;-50
2023/01/30 17:15:16;;;;;;;5.30;2.10;;;;;;;1.32;59.02;99471.67;104875;1265;59772;-50